Time;durP1;ratioP1;P1;durP2;ratioP2;P2;SDS_P1;SDS_P2;PMS_P1;PMS_P2;Temp;Humidity;BMP_temperature;BMP_pressure;BME280_temperature;BME280_humidity;BME280_pressure;Samples;Min_cycle;Max_cycle;Signal;HPM_P1;HPM_P2
2022/02/02 00:00:55;;;;;;;1999.90;999.90;;;;;;;0.46;60.96;99898.31;4958946;28;98228;-71
2022/02/02 00:03:24;;;;;;;1999.90;999.90;;;;;;;0.46;61.47;99872.13;4961504;28;99803;-70
2022/02/02 00:06:02;;;;;;;1999.90;999.90;;;;;;;0.49;61.22;99885.34;4962578;28;100090;-70
2022/02/02 00:08:35;;;;;;;1999.90;999.90;;;;;;;0.48;60.65;99892.31;4962926;28;98959;-70
2022/02/02 00:11:45;;;;;;;1999.90;999.90;;;;;;;0.48;61.27;99887.09;4960149;28;98435;-68
2022/02/02 00:14:22;;;;;;;1999.90;999.90;;;;;;;0.50;60.75;99887.16;4962956;28;97045;-70
2022/02/02 00:16:56;;;;;;;1999.90;999.90;;;;;;;0.48;60.67;99892.31;4978703;28;99016;-70
2022/02/02 00:19:39;;;;;;;1999.90;999.90;;;;;;;0.48;61.16;99889.72;4968995;28;99435;-70
2022/02/02 00:22:11;;;;;;;1999.90;999.90;;;;;;;0.49;60.74;99887.97;4967697;28;96823;-70
2022/02/02 00:24:55;;;;;;;1999.90;999.90;;;;;;;0.49;61.04;99894.09;4967898;28;96470;-70
2022/02/02 00:27:25;;;;;;;1999.90;999.90;;;;;;;0.50;60.94;99906.38;4970094;28;98181;-70
2022/02/02 00:29:58;;;;;;;1999.90;999.90;;;;;;;0.49;61.24;99893.19;4965782;28;99171;-70
2022/02/02 00:32:42;;;;;;;1999.90;999.90;;;;;;;0.49;60.92;99898.44;4965115;28;97678;-72
2022/02/02 00:35:12;;;;;;;1999.90;999.90;;;;;;;0.49;60.92;99891.50;4963023;28;98370;-68
2022/02/02 00:37:40;;;;;;;1999.90;999.90;;;;;;;0.49;61.42;99895.81;4964831;28;97150;-70
2022/02/02 00:40:09;;;;;;;1999.90;999.90;;;;;;;0.46;60.66;99899.22;4963926;28;97990;-70
2022/02/02 00:42:37;;;;;;;1999.90;999.90;;;;;;;0.48;61.05;99910.66;4964890;28;98424;-69
2022/02/02 00:45:06;;;;;;;1999.90;999.90;;;;;;;0.48;60.92;99905.41;4963347;28;97767;-70
2022/02/02 00:47:38;;;;;;;1999.90;999.90;;;;;;;0.48;61.21;99897.56;4978675;28;99280;-70
2022/02/02 00:50:07;;;;;;;1999.90;999.90;;;;;;;0.51;60.73;99912.50;4961233;28;99854;-69
2022/02/02 00:52:35;;;;;;;1999.90;999.90;;;;;;;0.52;61.15;99923.03;4961151;28;96795;-69
2022/02/02 00:55:03;;;;;;;1999.90;999.90;;;;;;;0.50;60.72;99903.78;4961624;28;97120;-70
2022/02/02 00:57:30;;;;;;;1999.90;999.90;;;;;;;0.55;61.04;99917.97;4962565;28;97347;-70
2022/02/02 00:59:58;;;;;;;1999.90;999.90;;;;;;;0.53;60.87;99916.09;4961916;28;98669;-70
2022/02/02 01:02:28;;;;;;;1999.90;999.90;;;;;;;0.51;61.19;99938.66;4959409;28;97292;-70
2022/02/02 01:04:56;;;;;;;1999.90;999.90;;;;;;;0.51;61.08;99949.13;4958876;28;97299;-69
2022/02/02 01:07:35;;;;;;;1999.90;999.90;;;;;;;0.48;61.60;99954.22;4957698;28;99334;-69
2022/02/02 01:10:10;;;;;;;1999.90;999.90;;;;;;;0.46;61.65;99955.88;4962873;28;99228;-69
2022/02/02 01:12:51;;;;;;;1999.90;999.90;;;;;;;0.36;61.33;99958.88;4961578;28;98763;-69
2022/02/02 01:18:25;;;;;;;1999.90;999.90;;;;;;;0.39;61.42;99965.16;4959774;28;98490;-69
2022/02/02 01:20:59;;;;;;;1999.90;999.90;;;;;;;0.39;61.28;99964.25;4961279;28;97951;-69
2022/02/02 01:28:59;;;;;;;1999.90;999.90;;;;;;;0.33;61.29;99963.94;4964291;28;99812;-69
2022/02/02 01:31:27;;;;;;;1999.90;999.90;;;;;;;0.32;61.25;99956.94;4955858;28;97734;-69
2022/02/02 01:33:56;;;;;;;1999.90;999.90;;;;;;;0.31;60.97;99953.41;4976600;28;97202;-69
2022/02/02 01:36:23;;;;;;;1999.90;999.90;;;;;;;0.31;61.57;99960.34;4960745;28;96295;-69
2022/02/02 01:38:53;;;;;;;1999.90;999.90;;;;;;;0.31;61.31;99953.41;4961474;28;98779;-70
2022/02/02 01:41:29;;;;;;;1999.90;999.90;;;;;;;0.29;60.81;99947.22;4961444;28;99214;-69
2022/02/02 01:44:04;;;;;;;1999.90;999.90;;;;;;;0.28;60.79;99966.38;4958795;28;97116;-70
2022/02/02 01:46:34;;;;;;;1999.90;999.90;;;;;;;0.30;60.96;99945.50;4961885;28;96861;-69
2022/02/02 01:49:58;;;;;;;1999.90;999.90;;;;;;;0.26;61.31;99952.31;4956583;28;98896;-70
2022/02/02 01:52:13;;;;;;;1999.90;999.90;;;;;;;0.26;61.28;99954.03;4957469;28;97583;-70
2022/02/02 01:54:54;;;;;;;1999.90;999.90;;;;;;;0.23;61.28;99954.72;4956256;28;99119;-69
2022/02/02 01:57:45;;;;;;;1999.90;999.90;;;;;;;0.18;61.06;99954.50;4955873;28;98039;-70
2022/02/02 02:00:15;;;;;;;1999.90;999.90;;;;;;;0.18;61.09;99958.84;4954146;28;96893;-70
2022/02/02 02:02:42;;;;;;;1999.90;999.90;;;;;;;0.19;60.94;99960.66;4957061;28;98147;-70
2022/02/02 02:05:11;;;;;;;1999.90;999.90;;;;;;;0.15;61.09;99964.84;4943643;28;97924;-69
2022/02/02 02:07:39;;;;;;;1999.90;999.90;;;;;;;0.14;61.40;99977.81;4960258;28;99806;-70
2022/02/02 02:10:07;;;;;;;1999.90;999.90;;;;;;;0.14;61.50;99962.13;4961414;28;98908;-70
2022/02/02 02:12:45;;;;;;;1999.90;999.90;;;;;;;0.11;61.44;99968.13;4962083;28;98474;-70
2022/02/02 02:15:15;;;;;;;1999.90;999.90;;;;;;;0.09;61.45;99963.63;4951577;28;96875;-70
2022/02/02 02:17:43;;;;;;;1999.90;999.90;;;;;;;0.11;61.20;99967.22;4962396;28;97171;-71
2022/02/02 02:20:12;;;;;;;1999.90;999.90;;;;;;;0.11;61.12;99972.44;4962347;28;99467;-71
2022/02/02 02:22:43;;;;;;;1999.90;999.90;;;;;;;0.10;61.40;99973.28;4946372;28;100267;-70
2022/02/02 02:25:20;;;;;;;1999.90;999.90;;;;;;;0.09;60.91;99951.44;4962799;28;97054;-70
2022/02/02 02:27:47;;;;;;;1999.90;999.90;;;;;;;0.06;60.99;99964.34;4961431;28;99194;-70
2022/02/02 02:30:23;;;;;;;1999.90;999.90;;;;;;;0.09;61.36;99958.38;4961466;28;97688;-71
2022/02/02 02:57:48;;;;;;;1999.90;999.90;;;;;;;0.05;60.48;99972.13;4962159;28;97498;-71
2022/02/02 03:00:29;;;;;;;1999.90;999.90;;;;;;;0.02;60.28;99974.59;4961358;28;98505;-70
2022/02/02 03:14:41;;;;;;;1999.90;999.90;;;;;;;-0.02;60.05;99976.16;4963274;28;97656;-70
2022/02/02 03:30:59;;;;;;;1999.90;999.90;;;;;;;-0.09;59.87;99989.75;4963109;28;97381;-70
2022/02/02 03:50:32;;;;;;;1999.90;999.90;;;;;;;-0.10;60.07;100013.22;4912398;28;99795;-69
2022/02/02 03:56:02;;;;;;;1999.90;999.90;;;;;;;-0.12;60.06;100020.94;4940334;28;96781;-70
2022/02/02 03:58:35;;;;;;;1999.90;999.90;;;;;;;-0.12;60.08;100026.19;4966480;28;98589;-70
2022/02/02 04:01:18;;;;;;;1999.90;999.90;;;;;;;-0.11;60.12;100028.00;4966522;28;99338;-70
2022/02/02 04:04:12;;;;;;;1999.90;999.90;;;;;;;-0.11;60.01;100033.22;4967436;28;97379;-69
2022/02/02 04:06:56;;;;;;;1999.90;999.90;;;;;;;-0.10;60.21;100024.53;4970053;28;98059;-69
2022/02/02 04:09:24;;;;;;;1999.90;999.90;;;;;;;-0.13;60.03;100042.69;4969868;28;99007;-71
2022/02/02 04:11:58;;;;;;;1999.90;999.90;;;;;;;-0.13;59.90;100021.78;4968169;28;99274;-69
2022/02/02 04:17:45;;;;;;;1999.90;999.90;;;;;;;-0.12;60.03;100052.31;4957619;28;97811;-69
2022/02/02 04:54:12;;;;;;;1999.90;999.90;;;;;;;-0.15;59.52;100094.00;4957348;28;99347;-69
2022/02/02 04:57:01;;;;;;;1999.90;999.90;;;;;;;0.06;59.26;100089.00;4960094;28;98308;-70
2022/02/02 04:59:35;;;;;;;1999.90;999.90;;;;;;;-0.11;59.33;100095.97;4961251;28;97337;-72
2022/02/02 05:07:37;;;;;;;1999.90;999.90;;;;;;;-0.17;59.50;100100.88;4958549;28;97815;-72
2022/02/02 05:10:15;;;;;;;1999.90;999.90;;;;;;;-0.18;59.87;100096.47;4953097;28;98703;-70
2022/02/02 05:18:38;;;;;;;1999.90;999.90;;;;;;;-0.15;59.72;100087.88;4936326;28;97777;-70
2022/02/02 05:21:31;;;;;;;1999.90;999.90;;;;;;;-0.19;59.39;100102.50;4959403;28;96737;-70
2022/02/02 05:25:03;;;;;;;1999.90;999.90;;;;;;;-0.21;59.20;100092.81;4956589;28;98570;-70
2022/02/02 05:41:25;;;;;;;1999.90;999.90;;;;;;;-0.17;59.26;100134.84;4956513;28;97646;-69
2022/02/02 05:44:08;;;;;;;1999.90;999.90;;;;;;;-0.17;59.23;100123.50;4956174;28;98135;-69
2022/02/02 05:49:40;;;;;;;1999.90;999.90;;;;;;;-0.13;59.27;100128.06;4955676;28;98714;-69
2022/02/02 05:52:11;;;;;;;1999.90;999.90;;;;;;;-0.15;58.90;100128.00;4956235;28;99174;-70
2022/02/02 05:54:39;;;;;;;1999.90;999.90;;;;;;;-0.14;59.29;100137.66;4957440;28;99451;-69
2022/02/02 05:57:12;;;;;;;1999.90;999.90;;;;;;;-0.14;58.99;100134.13;4960842;28;97352;-69
2022/02/02 05:59:41;;;;;;;1999.90;999.90;;;;;;;-0.13;59.01;100128.97;4958305;28;99746;-68
2022/02/02 06:02:11;;;;;;;1999.90;999.90;;;;;;;-0.16;59.03;100123.59;4956969;28;97221;-69
2022/02/02 06:04:44;;;;;;;1999.90;999.90;;;;;;;-0.20;58.80;100132.09;4954006;28;97288;-68
2022/02/02 06:07:12;;;;;;;1999.90;999.90;;;;;;;-0.13;59.11;100131.59;4959624;28;96814;-69
2022/02/02 06:09:44;;;;;;;1999.90;999.90;;;;;;;-0.13;59.06;100149.00;4962640;28;97548;-67
2022/02/02 06:12:17;;;;;;;1999.90;999.90;;;;;;;-0.14;58.96;100131.53;4959957;28;100717;-67
2022/02/02 06:14:45;;;;;;;1999.90;999.90;;;;;;;-0.17;59.00;100127.00;4961190;28;97229;-68
2022/02/02 06:17:13;;;;;;;1999.90;999.90;;;;;;;-0.19;59.09;100146.94;4959802;28;98870;-68
2022/02/02 06:19:40;;;;;;;1999.90;999.90;;;;;;;-0.24;59.38;100156.25;4956634;28;99583;-68
2022/02/02 06:22:11;;;;;;;1999.90;999.90;;;;;;;-0.27;59.30;100143.03;4960924;28;99145;-68
2022/02/02 06:24:47;;;;;;;1999.90;999.90;;;;;;;-0.25;59.13;100146.63;4958197;28;97709;-69
2022/02/02 06:27:21;;;;;;;1999.90;999.90;;;;;;;-0.26;59.17;100157.00;4945621;28;98892;-67
2022/02/02 06:29:53;;;;;;;1999.90;999.90;;;;;;;-0.23;59.20;100162.41;4959359;28;99514;-69
2022/02/02 06:32:24;;;;;;;1999.90;999.90;;;;;;;-0.30;59.16;100176.84;4962262;28;98523;-69
2022/02/02 06:34:57;;;;;;;1999.90;999.90;;;;;;;-0.27;59.31;100182.25;4961732;28;97193;-69
2022/02/02 06:37:25;;;;;;;1999.90;999.90;;;;;;;-0.26;59.40;100188.34;4961904;28;97429;-70
2022/02/02 06:39:53;;;;;;;1999.90;999.90;;;;;;;-0.27;59.30;100212.72;4975469;28;97844;-70
2022/02/02 06:42:23;;;;;;;1999.90;999.90;;;;;;;-0.29;59.14;100203.88;4957912;28;99553;-69
2022/02/02 06:44:51;;;;;;;1999.90;999.90;;;;;;;-0.31;59.07;100195.97;4959414;28;98513;-70
2022/02/02 06:47:19;;;;;;;1999.90;999.90;;;;;;;-0.31;59.13;100198.56;4958198;28;97085;-68
2022/02/02 06:49:49;;;;;;;1999.90;999.90;;;;;;;-0.32;58.79;100208.97;4956994;28;96996;-67
2022/02/02 06:52:24;;;;;;;1999.90;999.90;;;;;;;-0.31;59.23;100227.31;4957897;28;97597;-69
2022/02/02 06:55:00;;;;;;;1999.90;999.90;;;;;;;-0.35;59.04;100229.66;4938406;28;97475;-69
2022/02/02 06:57:45;;;;;;;1999.90;999.90;;;;;;;-0.39;58.72;100246.91;4953961;28;97426;-68
2022/02/02 07:00:23;;;;;;;1999.90;999.90;;;;;;;-0.33;59.12;100244.63;4953127;28;97984;-68
2022/02/02 07:03:04;;;;;;;1999.90;999.90;;;;;;;-0.37;59.34;100224.38;4957976;28;98423;-67
2022/02/02 07:05:39;;;;;;;1999.90;999.90;;;;;;;-0.40;59.25;100237.28;4959187;28;97215;-69
2022/02/02 07:08:25;;;;;;;1999.90;999.90;;;;;;;-0.42;59.16;100253.66;4964645;28;97298;-70
2022/02/02 07:11:07;;;;;;;1999.90;999.90;;;;;;;-0.40;59.30;100263.41;4963015;28;98840;-70
2022/02/02 07:13:49;;;;;;;1999.90;999.90;;;;;;;-0.43;59.72;100258.00;4947667;28;102999;-71
2022/02/02 07:16:30;;;;;;;1999.90;999.90;;;;;;;-0.41;59.51;100279.88;4950642;28;97957;-68
2022/02/02 07:19:09;;;;;;;1999.90;999.90;;;;;;;-0.45;59.58;100288.38;4952770;28;98562;-69
2022/02/02 07:21:57;;;;;;;1999.90;999.90;;;;;;;-0.41;59.54;100277.28;4953109;28;99482;-70
2022/02/02 07:30:09;;;;;;;1999.90;999.90;;;;;;;-0.37;59.45;100294.03;4956035;28;98607;-69
2022/02/02 07:32:42;;;;;;;1999.90;999.90;;;;;;;-0.38;59.74;100294.84;4974538;28;100088;-69
2022/02/02 07:35:15;;;;;;;1999.90;999.90;;;;;;;-0.34;59.45;100305.59;4967667;28;98736;-70
2022/02/02 07:37:47;;;;;;;1999.90;999.90;;;;;;;-0.36;59.63;100303.69;4965743;28;97301;-69
2022/02/02 07:40:16;;;;;;;1999.90;999.90;;;;;;;-0.37;59.76;100331.53;4965108;28;96827;-68
2022/02/02 07:42:48;;;;;;;1999.90;999.90;;;;;;;-0.36;59.70;100328.13;4978591;28;97334;-69
2022/02/02 07:45:19;;;;;;;1999.90;999.90;;;;;;;-0.35;59.59;100319.44;4957374;28;99798;-68
2022/02/02 07:47:49;;;;;;;1999.90;999.90;;;;;;;-0.33;59.57;100336.13;4954476;28;98583;-68
2022/02/02 07:50:18;;;;;;;1999.90;999.90;;;;;;;-0.28;59.39;100323.31;4957286;28;97384;-70
2022/02/02 07:52:46;;;;;;;1999.90;999.90;;;;;;;-0.28;59.51;100349.47;4958227;28;98717;-71
2022/02/02 07:55:15;;;;;;;1999.90;999.90;;;;;;;-0.28;59.52;100339.88;4954182;28;98548;-68
2022/02/02 07:57:44;;;;;;;1999.90;999.90;;;;;;;-0.22;59.49;100350.72;4976786;28;97917;-68
2022/02/02 08:00:18;;;;;;;1999.90;999.90;;;;;;;-0.19;58.99;100368.28;4957611;28;97537;-67
2022/02/02 08:02:59;;;;;;;1999.90;999.90;;;;;;;-0.17;59.26;100367.53;4957541;28;100815;-68
2022/02/02 08:05:29;;;;;;;1999.90;999.90;;;;;;;-0.18;59.15;100376.22;4960790;28;97943;-68
2022/02/02 08:08:09;;;;;;;1999.90;999.90;;;;;;;-0.16;59.43;100385.06;4954814;28;98401;-69
2022/02/02 08:10:38;;;;;;;1999.90;999.90;;;;;;;-0.16;59.35;100364.13;4956646;28;99199;-69
2022/02/02 08:13:11;;;;;;;1999.90;999.90;;;;;;;-0.16;59.42;100379.81;4960012;28;98635;-69
2022/02/02 08:15:40;;;;;;;1999.90;999.90;;;;;;;-0.15;59.13;100399.91;4939304;28;97815;-70
2022/02/02 08:18:09;;;;;;;1999.90;999.90;;;;;;;-0.14;58.96;100401.72;4959779;28;98109;-70
2022/02/02 08:20:37;;;;;;;1999.90;999.90;;;;;;;-0.18;59.42;100406.69;4958668;28;98402;-70
2022/02/02 08:23:05;;;;;;;1999.90;999.90;;;;;;;-0.12;59.27;100396.59;4961168;28;100487;-71
2022/02/02 08:25:33;;;;;;;1999.90;999.90;;;;;;;-0.15;59.17;100394.69;4962162;28;99063;-71
2022/02/02 08:28:05;;;;;;;1999.90;999.90;;;;;;;-0.12;59.04;100402.69;4961837;28;96802;-68
2022/02/02 08:30:33;;;;;;;1999.90;999.90;;;;;;;-0.12;59.10;100426.22;4964990;28;97276;-69
2022/02/02 08:33:03;;;;;;;1999.90;999.90;;;;;;;-0.13;59.19;100405.22;4964680;28;97937;-70
2022/02/02 08:35:35;;;;;;;1999.90;999.90;;;;;;;-0.11;59.33;100414.97;4965745;28;101047;-70
2022/02/02 08:38:10;;;;;;;1999.90;999.90;;;;;;;-0.08;59.10;100422.97;4966984;28;96878;-70
2022/02/02 08:40:41;;;;;;;1999.90;999.90;;;;;;;-0.07;59.19;100452.66;4968724;28;98751;-70
2022/02/02 08:43:13;;;;;;;1999.90;999.90;;;;;;;-0.04;59.13;100437.13;4966666;28;98306;-68
2022/02/02 08:45:44;;;;;;;1999.90;999.90;;;;;;;-0.03;59.09;100431.09;4967961;28;98124;-71
2022/02/02 08:48:17;;;;;;;1999.90;999.90;;;;;;;-0.00;59.29;100428.66;4965537;28;98786;-70
2022/02/02 08:50:50;;;;;;;1999.90;999.90;;;;;;;0.01;59.34;100443.56;4966498;28;98014;-70
2022/02/02 08:53:32;;;;;;;1999.90;999.90;;;;;;;0.01;59.21;100447.03;4978859;28;97835;-71
2022/02/02 08:56:19;;;;;;;1999.90;999.90;;;;;;;0.00;59.22;100455.72;4966805;28;98143;-70
2022/02/02 08:58:48;;;;;;;1999.90;999.90;;;;;;;0.07;59.00;100462.19;4950005;28;98769;-70
2022/02/02 09:01:22;;;;;;;1999.90;999.90;;;;;;;0.10;58.92;100459.78;4963507;28;97725;-71
2022/02/02 09:06:37;;;;;;;1999.90;999.90;;;;;;;0.12;58.61;100469.50;4966297;28;98074;-69
2022/02/02 09:09:12;;;;;;;1999.90;999.90;;;;;;;0.17;58.42;100464.53;4964610;28;97040;-71
2022/02/02 09:20:04;;;;;;;1999.90;999.90;;;;;;;0.28;57.94;100488.72;4966901;28;96752;-71
2022/02/02 09:25:17;;;;;;;1999.90;999.90;;;;;;;0.36;58.14;100492.69;4964043;28;97642;-70
2022/02/02 09:36:13;;;;;;;1999.90;999.90;;;;;;;0.46;57.37;100555.19;4951056;28;99653;-69
2022/02/02 09:38:43;;;;;;;1999.90;999.90;;;;;;;0.45;57.32;100530.72;4968551;28;97720;-70
2022/02/02 09:41:26;;;;;;;1999.90;999.90;;;;;;;0.46;57.07;100536.88;4965976;28;97367;-69
2022/02/02 09:43:58;;;;;;;1999.90;999.90;;;;;;;0.50;56.84;100546.72;4966339;28;96843;-68
2022/02/02 09:46:31;;;;;;;1999.90;999.90;;;;;;;0.51;56.89;100527.56;4964032;28;98953;-70
2022/02/02 09:49:03;;;;;;;1999.90;999.90;;;;;;;0.51;56.94;100545.88;4961348;28;100078;-70
2022/02/02 09:51:36;;;;;;;1999.90;999.90;;;;;;;0.56;57.03;100539.22;4964267;28;97298;-71
2022/02/02 09:54:10;;;;;;;1999.90;999.90;;;;;;;0.63;57.13;100551.84;4963084;28;97331;-72
2022/02/02 09:57:13;;;;;;;1999.90;999.90;;;;;;;0.61;57.02;100549.09;4963790;28;97540;-70
2022/02/02 10:00:12;;;;;;;1999.90;999.90;;;;;;;0.65;57.45;100573.78;4964497;28;98770;-70
2022/02/02 10:05:41;;;;;;;1999.90;999.90;;;;;;;0.59;57.25;100573.41;4935795;28;98455;-69
2022/02/02 10:11:09;;;;;;;1999.90;999.90;;;;;;;0.61;57.39;100570.06;4960849;28;99544;-69
2022/02/02 10:13:51;;;;;;;1999.90;999.90;;;;;;;0.60;56.82;100581.34;4963881;28;96775;-71
2022/02/02 10:16:21;;;;;;;1999.90;999.90;;;;;;;0.62;56.95;100574.50;4961608;28;97151;-70
2022/02/02 10:18:50;;;;;;;1999.90;999.90;;;;;;;0.64;56.80;100604.28;4960929;28;100077;-69
2022/02/02 10:21:30;;;;;;;1999.90;999.90;;;;;;;0.65;56.71;100599.97;4961195;28;98383;-69
2022/02/02 10:23:57;;;;;;;1999.90;999.90;;;;;;;0.58;56.27;100596.06;4944919;28;97517;-69
2022/02/02 10:26:27;;;;;;;1999.90;999.90;;;;;;;0.64;57.41;100604.28;4962562;28;99392;-70
2022/02/02 10:29:07;;;;;;;1999.90;999.90;;;;;;;0.65;56.25;100602.59;4945869;28;100211;-69
2022/02/02 10:31:39;;;;;;;1999.90;999.90;;;;;;;0.64;56.03;100611.22;4959016;28;100168;-69
2022/02/02 10:34:11;;;;;;;1999.90;999.90;;;;;;;0.68;56.75;100626.31;4957998;28;97316;-70
2022/02/02 10:36:39;;;;;;;1999.90;999.90;;;;;;;0.66;55.68;100622.69;4951269;28;97730;-69
2022/02/02 10:39:10;;;;;;;1999.90;999.90;;;;;;;0.64;56.32;100648.78;4960472;28;99728;-69
2022/02/02 10:41:48;;;;;;;1999.90;999.90;;;;;;;0.64;56.15;100632.19;4960965;28;97659;-69
2022/02/02 10:44:27;;;;;;;1999.90;999.90;;;;;;;0.61;55.72;100622.41;4958199;28;97167;-70
2022/02/02 10:47:00;;;;;;;1999.90;999.90;;;;;;;0.60;56.02;100644.19;4943224;28;97615;-68
2022/02/02 10:49:43;;;;;;;1999.90;999.90;;;;;;;0.60;55.70;100644.19;4959323;28;97758;-69
2022/02/02 10:52:29;;;;;;;1999.90;999.90;;;;;;;0.62;55.81;100657.34;4962794;28;100237;-69
2022/02/02 10:55:28;;;;;;;1999.90;999.90;;;;;;;0.49;52.99;100652.22;4969569;28;97248;-68
2022/02/02 10:58:21;;;;;;;1999.90;999.90;;;;;;;0.51;53.48;100668.91;4971408;28;97156;-69
2022/02/02 11:00:55;;;;;;;1999.90;999.90;;;;;;;0.58;55.41;100677.22;4971092;28;97642;-69
2022/02/02 11:06:38;;;;;;;1999.90;999.90;;;;;;;0.61;55.79;100687.00;4972817;28;97821;-69
2022/02/02 11:09:07;;;;;;;1999.90;999.90;;;;;;;0.58;55.37;100711.25;4972793;28;97292;-69
2022/02/02 11:11:39;;;;;;;1999.90;999.90;;;;;;;0.59;53.68;100688.59;4973210;28;98013;-69
2022/02/02 11:14:14;;;;;;;1999.90;999.90;;;;;;;0.56;52.06;100699.78;4969742;28;97601;-69
2022/02/02 11:16:48;;;;;;;1999.90;999.90;;;;;;;0.68;54.84;100670.81;4967914;28;97583;-69
2022/02/02 11:19:18;;;;;;;1999.90;999.90;;;;;;;0.77;55.67;100693.22;4968249;28;96845;-69
2022/02/02 11:21:46;;;;;;;1999.90;999.90;;;;;;;0.83;54.78;100711.88;4967293;28;99753;-67
2022/02/02 11:24:38;;;;;;;1999.90;999.90;;;;;;;0.88;53.76;100712.16;4965130;28;98273;-71
2022/02/02 11:27:06;;;;;;;1999.90;999.90;;;;;;;0.89;54.24;100719.19;4951448;28;97629;-67
2022/02/02 11:29:43;;;;;;;1999.90;999.90;;;;;;;0.87;51.91;100720.81;4980802;28;99524;-70
2022/02/02 11:32:13;;;;;;;1999.90;999.90;;;;;;;0.96;54.86;100744.94;4964774;28;99370;-70
2022/02/02 11:34:41;;;;;;;1999.90;999.90;;;;;;;0.95;54.37;100732.66;4962206;28;97744;-70
2022/02/02 11:37:11;;;;;;;1999.90;999.90;;;;;;;0.94;54.26;100736.13;4980092;28;96941;-70
2022/02/02 11:39:46;;;;;;;1999.90;999.90;;;;;;;0.96;54.28;100745.84;4961966;28;99092;-70
2022/02/02 11:42:43;;;;;;;1999.90;999.90;;;;;;;0.96;54.22;100734.47;4965288;28;99380;-69
2022/02/02 11:45:40;;;;;;;1999.90;999.90;;;;;;;0.99;54.03;100737.28;4964419;28;98845;-70
2022/02/02 11:48:15;;;;;;;1999.90;999.90;;;;;;;0.95;54.43;100745.75;4966127;28;96874;-70
2022/02/02 11:50:47;;;;;;;1999.90;999.90;;;;;;;0.88;52.20;100761.94;4967039;28;96849;-70
2022/02/02 11:53:48;;;;;;;1999.90;999.90;;;;;;;0.86;51.60;100758.31;4968641;28;98161;-69
2022/02/02 11:56:16;;;;;;;1999.90;999.90;;;;;;;0.90;53.22;100761.22;4950035;28;98194;-69
2022/02/02 11:58:44;;;;;;;1999.90;999.90;;;;;;;0.85;52.69;100772.25;4964744;28;96846;-69
2022/02/02 12:01:19;;;;;;;1999.90;999.90;;;;;;;0.87;53.93;100767.97;4965789;28;97081;-69
2022/02/02 12:04:02;;;;;;;1999.90;999.90;;;;;;;0.89;54.10;100771.59;4964926;28;99096;-69
2022/02/02 12:06:42;;;;;;;1999.90;999.90;;;;;;;0.92;54.17;100769.16;4964200;28;100833;-70
2022/02/02 12:09:19;;;;;;;1999.90;999.90;;;;;;;0.94;53.95;100780.66;4966175;28;98145;-70
2022/02/02 12:48:58;;;;;;;1999.90;999.90;;;;;;;1.13;53.87;100841.16;4963450;28;100509;-69
2022/02/02 12:57:09;;;;;;;1999.90;999.90;;;;;;;0.98;54.37;100856.88;4960793;28;96834;-70
2022/02/02 13:00:06;;;;;;;1999.90;999.90;;;;;;;1.01;54.39;100845.69;4964392;28;99507;-70
2022/02/02 13:02:37;;;;;;;1999.90;999.90;;;;;;;1.04;54.13;100836.28;4962830;28;100415;-70
2022/02/02 13:05:08;;;;;;;1999.90;999.90;;;;;;;1.11;54.15;100841.09;4962691;28;97789;-70
2022/02/02 13:07:41;;;;;;;1999.90;999.90;;;;;;;1.17;53.66;100832.69;4962770;28;98471;-69
2022/02/02 13:10:12;;;;;;;1999.90;999.90;;;;;;;1.26;54.00;100848.03;4961399;28;98405;-70
2022/02/02 13:12:43;;;;;;;1999.90;999.90;;;;;;;1.61;53.06;100846.69;4960468;28;101351;-70
2022/02/02 13:15:27;;;;;;;1999.90;999.90;;;;;;;1.50;52.93;100845.16;4978392;28;97015;-70
2022/02/02 13:18:12;;;;;;;1999.90;999.90;;;;;;;1.46;52.48;100842.25;4977673;28;96754;-71
2022/02/02 13:20:57;;;;;;;1999.90;999.90;;;;;;;1.46;52.63;100864.13;4959742;28;98051;-70
2022/02/02 13:23:40;;;;;;;1999.90;999.90;;;;;;;1.51;52.68;100878.41;4959503;28;97101;-71
2022/02/02 13:26:17;;;;;;;1999.90;999.90;;;;;;;1.51;52.77;100888.91;4945134;28;97095;-71
2022/02/02 13:28:51;;;;;;;1999.90;999.90;;;;;;;1.51;52.81;100887.97;4960262;28;97648;-71
2022/02/02 13:31:52;;;;;;;1999.90;999.90;;;;;;;1.42;53.25;100908.41;4978596;28;97808;-71
2022/02/02 13:34:28;;;;;;;1999.90;999.90;;;;;;;1.44;53.63;100923.44;4964028;28;97726;-69
2022/02/02 13:37:32;;;;;;;1999.90;999.90;;;;;;;1.41;53.07;100928.50;4962662;28;96817;-71
2022/02/02 13:46:16;;;;;;;1999.90;999.90;;;;;;;1.28;53.75;100935.53;4960916;28;96780;-70
2022/02/02 13:49:35;;;;;;;1999.90;999.90;;;;;;;1.23;53.23;100941.41;4960813;28;97231;-70
2022/02/02 13:52:25;;;;;;;1999.90;999.90;;;;;;;1.11;53.67;100939.75;4962093;28;97843;-71
2022/02/02 13:55:41;;;;;;;1999.90;999.90;;;;;;;1.06;53.37;100944.72;4959619;28;97768;-69
2022/02/02 14:01:07;;;;;;;1999.90;999.90;;;;;;;1.20;54.58;100956.03;4971599;28;97011;-69
2022/02/02 14:06:40;;;;;;;1999.90;999.90;;;;;;;1.41;54.20;100952.09;4943547;28;98905;-70
2022/02/02 14:09:14;;;;;;;1999.90;999.90;;;;;;;1.62;53.64;100961.25;4956516;28;99007;-72
2022/02/02 14:31:11;;;;;;;1999.90;999.90;;;;;;;2.34;52.21;100998.78;4952578;28;99394;-69
2022/02/02 14:33:57;;;;;;;1999.90;999.90;;;;;;;2.22;52.42;101000.69;4970596;28;97836;-70
2022/02/02 14:36:29;;;;;;;1999.90;999.90;;;;;;;2.19;52.68;101000.53;4964708;28;99187;-71
2022/02/02 14:39:03;;;;;;;1999.90;999.90;;;;;;;2.09;52.45;101014.84;4967044;28;98793;-70
2022/02/02 14:41:37;;;;;;;1999.90;999.90;;;;;;;2.02;52.72;101014.34;4966763;28;97963;-70
2022/02/02 14:44:12;;;;;;;1999.90;999.90;;;;;;;1.93;53.12;101032.16;4961991;28;96830;-71
2022/02/02 14:46:45;;;;;;;1999.90;999.90;;;;;;;1.86;53.85;101037.88;4958223;28;97638;-69
2022/02/02 14:49:17;;;;;;;1999.90;999.90;;;;;;;1.78;52.83;101039.16;4942364;28;99378;-69
2022/02/02 14:51:58;;;;;;;1999.90;999.90;;;;;;;1.69;53.22;101044.72;4963521;28;97626;-68
2022/02/02 14:54:46;;;;;;;1999.90;999.90;;;;;;;1.63;53.12;101041.75;4964857;28;98308;-67
2022/02/02 15:06:17;;;;;;;1999.90;999.90;;;;;;;1.32;54.17;101063.34;4940411;28;97764;-68
2022/02/02 15:28:29;;;;;;;1999.90;999.90;;;;;;;0.99;54.71;101130.25;4963548;28;97347;-69
2022/02/02 15:31:00;;;;;;;1999.90;999.90;;;;;;;0.93;54.10;101133.41;4960807;28;97222;-68
2022/02/02 15:33:32;;;;;;;1999.90;999.90;;;;;;;0.89;54.42;101156.66;4958623;28;98758;-68
2022/02/02 15:36:16;;;;;;;1999.90;999.90;;;;;;;0.79;55.27;101146.41;4959766;28;100616;-69
2022/02/02 15:38:48;;;;;;;1999.90;999.90;;;;;;;0.72;55.34;101141.56;4958545;28;96786;-69
2022/02/02 15:41:21;;;;;;;1999.90;999.90;;;;;;;0.63;55.53;101149.69;4956067;28;98499;-71
2022/02/02 15:44:44;;;;;;;1999.90;999.90;;;;;;;0.58;55.82;101187.78;4961039;28;98828;-68
2022/02/02 15:55:06;;;;;;;1999.90;999.90;;;;;;;-0.04;56.90;101183.44;4960470;28;99293;-67
2022/02/02 16:03:06;;;;;;;1999.90;999.90;;;;;;;-0.38;57.60;101184.50;4946734;28;99149;-69
2022/02/02 16:05:43;;;;;;;1999.90;999.90;;;;;;;-0.41;57.73;101184.25;4961322;28;97949;-69
2022/02/02 16:08:13;;;;;;;1999.90;999.90;;;;;;;-0.52;58.08;101194.78;4964018;28;98942;-68
2022/02/02 16:10:59;;;;;;;1999.90;999.90;;;;;;;-0.57;57.99;101199.66;4961498;28;96882;-69
2022/02/02 16:13:31;;;;;;;1999.90;999.90;;;;;;;-0.58;57.66;101196.94;4959512;28;97020;-69
2022/02/02 16:16:05;;;;;;;1999.90;999.90;;;;;;;-0.64;57.79;101196.47;4961044;28;98087;-68
2022/02/02 16:18:41;;;;;;;1999.90;999.90;;;;;;;-0.63;57.80;101208.78;4959183;28;99950;-69
2022/02/02 16:35:39;;;;;;;1999.90;999.90;;;;;;;-0.77;57.60;101252.16;4910923;28;98039;-69
2022/02/02 16:38:17;;;;;;;1999.90;999.90;;;;;;;-0.77;57.46;101262.63;4960416;28;98616;-68
2022/02/02 16:40:49;;;;;;;1999.90;999.90;;;;;;;-0.78;57.68;101255.59;4958643;28;97562;-69